Time;durP1;ratioP1;P1;durP2;ratioP2;P2;SDS_P1;SDS_P2;PMS_P1;PMS_P2;Temp;Humidity;BMP_temperature;BMP_pressure;BME280_temperature;BME280_humidity;BME280_pressure;Samples;Min_cycle;Max_cycle;Signal;HPM_P1;HPM_P2
2022/10/19 00:02:10;;;;;;;13.37;4.43;;;16.30;69.30;;;;;;4930455;28;20346;-87
2022/10/19 00:04:37;;;;;;;13.13;3.83;;;16.30;69.20;;;;;;4930311;29;20295;-88
2022/10/19 00:07:04;;;;;;;11.70;4.00;;;16.30;69.20;;;;;;4927370;28;20201;-88
2022/10/19 00:09:31;;;;;;;12.67;4.43;;;16.30;69.20;;;;;;4917913;28;20935;-88
2022/10/19 00:11:58;;;;;;;10.10;3.67;;;16.30;69.30;;;;;;4996370;28;20205;-86
2022/10/19 00:14:26;;;;;;;16.27;4.53;;;16.30;69.30;;;;;;4928210;28;20208;-88
2022/10/19 00:16:57;;;;;;;12.20;4.37;;;16.30;69.40;;;;;;4993067;28;20226;-87
2022/10/19 00:19:27;;;;;;;12.90;4.67;;;16.30;69.60;;;;;;4929792;28;20756;-87
2022/10/19 00:21:54;;;;;;;12.60;4.87;;;16.20;70.20;;;;;;4939524;28;20234;-86
2022/10/19 00:24:22;;;;;;;19.27;5.73;;;16.20;69.50;;;;;;4953220;28;20209;-88
2022/10/19 00:26:49;;;;;;;12.07;4.30;;;16.20;69.70;;;;;;4940484;29;20273;-85
2022/10/19 00:29:18;;;;;;;18.63;5.37;;;16.20;69.70;;;;;;4934655;29;20271;-88
2022/10/19 00:31:48;;;;;;;15.17;4.53;;;16.20;69.70;;;;;;4934876;29;20225;-87
2022/10/19 00:34:17;;;;;;;16.47;4.50;;;16.20;70.50;;;;;;4934880;29;20220;-88
2022/10/19 00:36:44;;;;;;;11.27;4.13;;;16.10;69.80;;;;;;4934685;28;20232;-87
2022/10/19 00:39:15;;;;;;;15.80;5.90;;;16.10;69.80;;;;;;4933364;28;20221;-87
2022/10/19 00:41:43;;;;;;;16.90;5.23;;;16.10;70.00;;;;;;4934741;28;20316;-88
2022/10/19 00:44:43;;;;;;;14.20;4.80;;;16.10;70.00;;;;;;4934041;28;20212;-86
2022/10/19 00:47:10;;;;;;;17.30;4.67;;;16.10;70.60;;;;;;4934888;28;20953;-87
2022/10/19 00:49:43;;;;;;;19.50;5.23;;;16.10;70.80;;;;;;4934625;28;20211;-89
2022/10/19 00:52:14;;;;;;;13.43;4.47;;;16.00;70.00;;;;;;4935757;28;20216;-87
2022/10/19 00:54:43;;;;;;;13.73;4.87;;;16.00;70.10;;;;;;4934395;29;20297;-87
2022/10/19 00:57:11;;;;;;;13.10;4.77;;;16.00;70.30;;;;;;4934548;28;20621;-88
2022/10/19 00:59:41;;;;;;;11.43;4.70;;;16.00;70.20;;;;;;4934947;28;20239;-87
2022/10/19 01:02:08;;;;;;;18.83;5.90;;;16.00;70.40;;;;;;4925216;28;20579;-87
2022/10/19 01:04:38;;;;;;;14.20;5.03;;;15.90;70.40;;;;;;4923082;29;20290;-85
2022/10/19 01:07:07;;;;;;;14.63;5.07;;;15.90;70.70;;;;;;4935267;28;20243;-87
2022/10/19 01:09:35;;;;;;;16.03;5.10;;;15.90;70.80;;;;;;4935461;29;20543;-88
2022/10/19 01:12:11;;;;;;;14.03;4.47;;;15.90;71.40;;;;;;4934730;29;20218;-87
2022/10/19 01:14:50;;;;;;;16.63;5.07;;;15.90;70.90;;;;;;4934765;29;20214;-87
2022/10/19 01:17:23;;;;;;;16.57;5.90;;;15.90;71.20;;;;;;4941538;28;20203;-88
2022/10/19 01:20:32;;;;;;;16.43;5.23;;;15.80;71.10;;;;;;4933791;28;20209;-87
2022/10/19 01:23:24;;;;;;;9.33;3.80;;;15.80;71.60;;;;;;4928790;28;20232;-88
2022/10/19 01:26:02;;;;;;;15.37;4.80;;;15.80;71.20;;;;;;4925202;28;20209;-89
2022/10/19 01:28:44;;;;;;;13.87;4.70;;;15.80;71.00;;;;;;4933163;28;20244;-87
2022/10/19 01:31:22;;;;;;;13.50;4.80;;;15.80;71.40;;;;;;4937239;28;20208;-89
2022/10/19 01:33:55;;;;;;;14.70;5.53;;;15.70;71.40;;;;;;4924992;28;20208;-88
2022/10/19 01:36:29;;;;;;;13.67;5.07;;;15.70;71.40;;;;;;4931182;28;20300;-88
2022/10/19 01:39:02;;;;;;;11.83;4.40;;;15.70;71.40;;;;;;4931699;29;20726;-87
2022/10/19 01:41:36;;;;;;;13.30;4.97;;;15.70;71.70;;;;;;4913907;28;20319;-88
2022/10/19 01:44:11;;;;;;;15.53;5.33;;;15.70;71.70;;;;;;4932275;28;20240;-89
2022/10/19 01:46:44;;;;;;;15.43;4.77;;;15.70;72.00;;;;;;4926786;28;20271;-88
2022/10/19 01:49:17;;;;;;;20.23;5.80;;;15.60;71.80;;;;;;4932383;28;20314;-89
2022/10/19 01:51:47;;;;;;;13.33;4.43;;;15.60;71.90;;;;;;4931924;28;20303;-87
2022/10/19 01:54:17;;;;;;;23.83;7.37;;;15.60;72.00;;;;;;4931454;28;20212;-86
2022/10/19 01:56:46;;;;;;;13.80;4.50;;;15.60;72.10;;;;;;4931321;28;20307;-87
2022/10/19 01:59:15;;;;;;;14.77;4.97;;;15.60;72.30;;;;;;4931608;28;20291;-88
2022/10/19 02:01:46;;;;;;;14.80;5.27;;;15.50;72.20;;;;;;4931383;28;20250;-87
2022/10/19 02:04:18;;;;;;;14.37;5.50;;;15.50;72.20;;;;;;4928411;29;20267;-89
2022/10/19 02:06:45;;;;;;;12.70;5.13;;;15.50;72.40;;;;;;4929768;29;20302;-88
2022/10/19 02:09:19;;;;;;;15.70;4.90;;;15.50;72.10;;;;;;4929887;28;20298;-88
2022/10/19 02:11:49;;;;;;;12.90;4.37;;;15.50;73.60;;;;;;4935676;29;20275;-88
2022/10/19 02:14:21;;;;;;;12.27;4.27;;;15.50;72.60;;;;;;4936219;28;20212;-88
2022/10/19 02:16:59;;;;;;;13.23;5.57;;;15.50;72.60;;;;;;4929843;28;20209;-88
2022/10/19 02:19:26;;;;;;;17.10;6.07;;;15.50;73.20;;;;;;4928850;28;20205;-86
2022/10/19 02:21:54;;;;;;;18.57;6.13;;;15.50;72.80;;;;;;4933108;28;20295;-87
2022/10/19 02:24:21;;;;;;;14.60;5.70;;;15.50;73.00;;;;;;4931247;29;20217;-87
2022/10/19 02:26:50;;;;;;;13.80;5.60;;;15.50;73.00;;;;;;4931177;29;20245;-88
2022/10/19 02:29:19;;;;;;;12.03;4.97;;;15.50;73.20;;;;;;4930795;28;20201;-87
2022/10/19 02:31:46;;;;;;;15.17;4.77;;;15.40;73.00;;;;;;4932286;29;20254;-88
2022/10/19 02:34:14;;;;;;;17.43;6.20;;;15.40;73.10;;;;;;4931009;29;20277;-89
2022/10/19 02:36:41;;;;;;;19.17;6.83;;;15.40;73.30;;;;;;4930694;29;20246;-87
2022/10/19 02:39:10;;;;;;;13.57;5.07;;;15.50;73.50;;;;;;4932679;29;20272;-89
2022/10/19 02:41:41;;;;;;;15.17;6.00;;;15.40;73.60;;;;;;4932854;28;20310;-88
2022/10/19 02:44:16;;;;;;;16.70;5.60;;;15.40;73.80;;;;;;4931751;28;20244;-87
2022/10/19 02:46:46;;;;;;;13.67;5.30;;;15.40;74.00;;;;;;4912999;28;20323;-87
2022/10/19 02:49:15;;;;;;;16.00;5.70;;;15.40;74.00;;;;;;4931776;28;20223;-87
2022/10/19 02:51:57;;;;;;;16.73;5.73;;;15.30;73.90;;;;;;4931502;29;20204;-87
2022/10/19 02:54:25;;;;;;;26.30;7.80;;;15.30;74.60;;;;;;4930634;28;20283;-87
2022/10/19 02:56:54;;;;;;;15.57;5.30;;;15.30;73.80;;;;;;4927120;28;20214;-87
2022/10/19 02:59:22;;;;;;;13.37;5.40;;;15.30;74.00;;;;;;4932537;29;20222;-89
2022/10/19 03:01:51;;;;;;;13.97;5.63;;;15.30;74.20;;;;;;4929917;29;20233;-89
2022/10/19 03:04:21;;;;;;;17.50;6.50;;;15.30;74.10;;;;;;4921400;28;20733;-89
2022/10/19 03:06:49;;;;;;;18.63;6.57;;;15.30;74.30;;;;;;4931783;28;20212;-89
2022/10/19 03:09:15;;;;;;;15.10;6.10;;;15.20;74.20;;;;;;4935670;29;20735;-89
2022/10/19 03:11:42;;;;;;;16.30;5.53;;;15.20;74.30;;;;;;4935081;28;20308;-89
2022/10/19 03:14:10;;;;;;;11.77;4.67;;;15.20;74.40;;;;;;4932902;28;20572;-87
2022/10/19 03:16:37;;;;;;;18.93;6.17;;;15.20;74.30;;;;;;4915640;29;20258;-89
2022/10/19 03:19:08;;;;;;;12.37;5.23;;;15.20;74.50;;;;;;4920629;28;20203;-89
2022/10/19 03:21:41;;;;;;;15.03;5.57;;;15.20;74.60;;;;;;4937530;29;20649;-91
2022/10/19 03:24:08;;;;;;;12.77;5.07;;;15.10;74.50;;;;;;4937486;29;20270;-92
2022/10/19 03:26:35;;;;;;;13.23;4.53;;;15.20;74.50;;;;;;4930248;29;20240;-89
2022/10/19 03:29:07;;;;;;;11.93;4.53;;;15.10;74.50;;;;;;4934823;28;20279;-90
2022/10/19 03:31:37;;;;;;;23.87;7.40;;;15.10;75.10;;;;;;4933401;28;20258;-89
2022/10/19 03:34:04;;;;;;;18.37;6.20;;;15.10;74.90;;;;;;4942222;28;20208;-87
2022/10/19 03:36:34;;;;;;;27.60;8.40;;;15.20;75.00;;;;;;4943025;28;20220;-90
2022/10/19 03:39:08;;;;;;;14.63;5.83;;;15.10;75.20;;;;;;4938773;28;20232;-89
2022/10/19 03:41:38;;;;;;;16.93;5.80;;;15.10;75.40;;;;;;4950137;28;20255;-88
2022/10/19 03:44:06;;;;;;;14.67;4.77;;;15.10;75.20;;;;;;4947090;28;20243;-90
2022/10/19 03:46:33;;;;;;;13.43;5.23;;;15.10;75.20;;;;;;4945819;28;20195;-90
2022/10/19 03:49:00;;;;;;;14.70;5.23;;;15.00;75.20;;;;;;5010568;28;20188;-89
2022/10/19 03:51:32;;;;;;;12.93;4.87;;;15.00;75.20;;;;;;4939122;28;20235;-92
2022/10/19 03:54:03;;;;;;;14.80;4.87;;;15.00;75.30;;;;;;5001138;28;20200;-90
2022/10/19 03:56:31;;;;;;;19.43;6.27;;;15.00;75.20;;;;;;4933598;28;20204;-87
2022/10/19 03:59:00;;;;;;;14.07;5.10;;;15.00;75.30;;;;;;4930763;28;20232;-89
2022/10/19 04:01:32;;;;;;;13.47;5.20;;;15.00;75.40;;;;;;4932512;28;20210;-89
2022/10/19 04:04:03;;;;;;;15.93;5.50;;;14.90;75.70;;;;;;4943306;29;20320;-88
2022/10/19 04:06:33;;;;;;;16.30;5.57;;;14.90;75.40;;;;;;4931196;29;20250;-88
2022/10/19 04:09:06;;;;;;;13.93;5.13;;;14.90;75.50;;;;;;4940145;29;20264;-92
2022/10/19 04:11:34;;;;;;;10.27;4.50;;;14.90;75.80;;;;;;4938510;29;20219;-94
2022/10/19 04:14:01;;;;;;;12.90;4.53;;;14.90;75.60;;;;;;4941882;28;20224;-91
2022/10/19 04:16:30;;;;;;;20.87;5.23;;;14.90;75.70;;;;;;4937159;29;20242;-89
2022/10/19 04:18:58;;;;;;;16.53;5.63;;;14.90;75.80;;;;;;4937581;29;20209;-94
2022/10/19 04:21:27;;;;;;;21.73;6.17;;;14.90;75.80;;;;;;4947678;28;20207;-89
2022/10/19 04:23:58;;;;;;;12.10;4.77;;;14.80;75.80;;;;;;4930494;29;20249;-88
2022/10/19 04:26:27;;;;;;;22.43;6.57;;;14.80;75.90;;;;;;4936292;28;20239;-89
2022/10/19 04:28:58;;;;;;;19.77;6.10;;;14.80;76.00;;;;;;4919955;28;20243;-89
2022/10/19 04:31:25;;;;;;;12.63;5.30;;;14.80;75.80;;;;;;4933100;28;20306;-89
2022/10/19 04:33:52;;;;;;;22.17;6.73;;;14.80;75.80;;;;;;4928493;28;20679;-87
2022/10/19 04:36:20;;;;;;;20.83;5.77;;;14.80;75.80;;;;;;4931290;28;20211;-90
2022/10/19 04:38:51;;;;;;;18.40;6.47;;;14.80;76.00;;;;;;4918147;28;20197;-89
2022/10/19 04:41:20;;;;;;;14.73;5.83;;;14.80;76.40;;;;;;4930103;29;20327;-87
2022/10/19 04:43:50;;;;;;;17.97;7.17;;;14.70;76.10;;;;;;4927873;28;20714;-89
2022/10/19 04:46:18;;;;;;;13.63;4.77;;;14.70;76.30;;;;;;4929594;28;20259;-89
2022/10/19 04:48:47;;;;;;;24.50;7.13;;;14.70;76.20;;;;;;4926992;28;20236;-89
2022/10/19 04:51:15;;;;;;;17.10;5.43;;;14.70;76.30;;;;;;4930229;28;20197;-89
2022/10/19 04:53:43;;;;;;;16.90;5.50;;;14.70;76.30;;;;;;4929074;28;20316;-89
2022/10/19 04:56:14;;;;;;;15.43;5.87;;;14.70;76.30;;;;;;4936720;29;20210;-89
2022/10/19 04:58:41;;;;;;;15.17;5.20;;;14.70;76.40;;;;;;4940275;28;20230;-89
2022/10/19 05:01:13;;;;;;;12.87;4.50;;;14.70;76.20;;;;;;4937770;29;20212;-89
2022/10/19 05:03:40;;;;;;;13.57;4.70;;;14.60;76.60;;;;;;4932804;28;20230;-88
2022/10/19 05:06:09;;;;;;;14.50;5.53;;;14.60;76.20;;;;;;4930772;28;20206;-89
2022/10/19 05:08:37;;;;;;;13.80;5.53;;;14.60;76.40;;;;;;4927695;28;20265;-89
2022/10/19 05:11:05;;;;;;;12.37;4.87;;;14.60;76.60;;;;;;4933416;28;20216;-90
2022/10/19 05:13:32;;;;;;;17.97;6.33;;;14.50;76.50;;;;;;4929135;28;20200;-90
2022/10/19 05:16:02;;;;;;;15.73;5.87;;;14.60;76.60;;;;;;4924622;28;20294;-89
2022/10/19 05:18:32;;;;;;;13.80;5.50;;;14.50;76.80;;;;;;4932923;28;20299;-88
2022/10/19 05:21:03;;;;;;;17.43;6.07;;;14.50;76.90;;;;;;4931342;29;20291;-89
2022/10/19 05:23:31;;;;;;;17.17;5.37;;;14.50;77.00;;;;;;4930410;28;20378;-89
2022/10/19 05:26:02;;;;;;;16.57;6.17;;;14.50;76.90;;;;;;4928573;28;20302;-89
2022/10/19 05:28:29;;;;;;;13.37;5.37;;;14.50;77.20;;;;;;4930117;28;20266;-89
2022/10/19 05:31:06;;;;;;;17.83;6.00;;;14.40;76.70;;;;;;4928537;28;20231;-90
2022/10/19 05:33:35;;;;;;;15.50;5.40;;;14.40;77.50;;;;;;4930241;29;20655;-90
2022/10/19 05:36:14;;;;;;;19.60;6.73;;;14.40;77.10;;;;;;4928250;28;20204;-89
2022/10/19 05:38:44;;;;;;;10.83;5.00;;;14.40;77.40;;;;;;4930677;29;20214;-90
2022/10/19 05:41:11;;;;;;;15.13;5.80;;;14.40;76.80;;;;;;4929862;28;20324;-89
2022/10/19 05:43:38;;;;;;;16.47;6.73;;;14.40;76.80;;;;;;4930302;29;20231;-87
2022/10/19 05:46:07;;;;;;;11.03;5.07;;;14.40;76.90;;;;;;4925760;28;20318;-89
2022/10/19 05:48:36;;;;;;;11.43;4.97;;;14.40;77.00;;;;;;4931987;28;20207;-90
2022/10/19 05:51:05;;;;;;;15.77;5.93;;;14.40;77.20;;;;;;4931613;28;20205;-90
2022/10/19 05:53:33;;;;;;;14.23;5.83;;;14.30;77.20;;;;;;4927095;28;20207;-89
2022/10/19 05:56:05;;;;;;;14.37;5.83;;;14.30;77.20;;;;;;4931795;28;20283;-89
2022/10/19 05:58:35;;;;;;;14.00;5.50;;;14.40;77.70;;;;;;4930231;28;20572;-89
2022/10/19 06:01:02;;;;;;;16.73;5.90;;;14.30;77.10;;;;;;4925186;29;20682;-89
2022/10/19 06:03:30;;;;;;;23.07;7.40;;;14.30;77.20;;;;;;4931770;29;20235;-94
2022/10/19 06:06:03;;;;;;;18.10;5.33;;;14.30;77.40;;;;;;4934937;29;20209;-91
2022/10/19 06:08:31;;;;;;;17.27;6.43;;;14.30;77.90;;;;;;4938916;28;20232;-96
2022/10/19 06:11:05;;;;;;;14.50;6.10;;;14.30;77.40;;;;;;4936094;28;20214;-89
2022/10/19 06:13:32;;;;;;;13.43;5.27;;;14.30;78.10;;;;;;4917639;28;20288;-94
2022/10/19 06:15:59;;;;;;;18.50;6.80;;;14.20;77.60;;;;;;4918965;28;20207;-91
2022/10/19 06:18:26;;;;;;;16.10;6.10;;;14.20;77.70;;;;;;4921512;29;20219;-89
2022/10/19 06:20:53;;;;;;;15.87;6.27;;;14.20;77.70;;;;;;4923146;28;20222;-89
2022/10/19 06:23:22;;;;;;;16.60;6.53;;;14.20;77.80;;;;;;4934545;29;20257;-91
2022/10/19 06:25:51;;;;;;;17.80;6.73;;;14.20;78.00;;;;;;4936118;28;20216;-91
2022/10/19 06:28:19;;;;;;;16.73;6.33;;;14.20;78.10;;;;;;4946536;28;20213;-90
2022/10/19 06:30:46;;;;;;;13.87;5.87;;;14.10;78.10;;;;;;4951991;29;20220;-91
2022/10/19 06:33:13;;;;;;;16.87;6.40;;;14.10;77.90;;;;;;4947291;28;20245;-90
2022/10/19 06:35:43;;;;;;;17.87;7.10;;;14.10;78.10;;;;;;4934424;28;20209;-89
2022/10/19 06:38:12;;;;;;;16.63;6.23;;;14.10;78.30;;;;;;4932739;29;20910;-89
2022/10/19 06:40:41;;;;;;;13.43;6.10;;;14.10;78.40;;;;;;4931912;28;20281;-89
2022/10/19 06:43:08;;;;;;;17.77;5.73;;;14.10;78.80;;;;;;4932714;28;20381;-89
2022/10/19 06:45:38;;;;;;;13.27;5.40;;;14.10;78.80;;;;;;4933257;28;21046;-89
2022/10/19 06:48:06;;;;;;;12.37;5.47;;;14.00;78.90;;;;;;4933384;28;20246;-90
2022/10/19 06:50:34;;;;;;;14.63;5.30;;;14.00;78.90;;;;;;4938181;28;20877;-89
2022/10/19 06:53:08;;;;;;;14.30;5.90;;;14.00;79.10;;;;;;4935522;28;20251;-88
2022/10/19 06:55:43;;;;;;;15.73;5.77;;;14.10;79.60;;;;;;4936619;28;20660;-86
2022/10/19 06:58:10;;;;;;;22.73;8.07;;;14.00;80.00;;;;;;4932291;28;20235;-90
2022/10/19 07:00:39;;;;;;;24.90;8.07;;;14.00;79.60;;;;;;4927125;28;20205;-89
2022/10/19 07:03:07;;;;;;;15.00;5.33;;;14.00;79.70;;;;;;4939560;28;20216;-90
2022/10/19 07:05:34;;;;;;;14.30;5.97;;;14.00;80.20;;;;;;4929494;28;20290;-91
2022/10/19 07:08:01;;;;;;;17.00;6.03;;;14.00;80.10;;;;;;4935380;28;20245;-88
2022/10/19 07:10:31;;;;;;;16.97;6.23;;;14.00;80.30;;;;;;4934549;28;20297;-89
2022/10/19 07:13:00;;;;;;;15.40;6.13;;;14.00;80.40;;;;;;4926775;28;20256;-89
2022/10/19 07:15:28;;;;;;;13.17;5.40;;;14.10;81.00;;;;;;4933209;29;20298;-89
2022/10/19 07:17:55;;;;;;;15.30;6.07;;;14.10;81.20;;;;;;4935819;28;20876;-89
2022/10/19 07:20:22;;;;;;;17.33;5.50;;;14.10;81.10;;;;;;4942203;29;20245;-89
2022/10/19 07:22:49;;;;;;;14.60;5.57;;;14.10;81.40;;;;;;4930195;28;20215;-86
2022/10/19 07:25:17;;;;;;;21.20;6.73;;;14.10;81.40;;;;;;4928968;29;20242;-88
2022/10/19 07:27:43;;;;;;;22.20;7.33;;;14.20;81.60;;;;;;4927617;29;20229;-87
2022/10/19 07:30:12;;;;;;;27.47;6.90;;;14.20;81.60;;;;;;4927921;28;20207;-85
2022/10/19 07:32:39;;;;;;;20.57;6.40;;;14.20;81.80;;;;;;4914560;28;20207;-86
2022/10/19 07:35:08;;;;;;;22.70;7.83;;;14.20;81.60;;;;;;4927491;28;20209;-88
2022/10/19 07:37:35;;;;;;;22.80;7.43;;;14.20;81.60;;;;;;4927585;28;20331;-86
2022/10/19 07:40:03;;;;;;;15.93;5.70;;;14.30;81.70;;;;;;4928043;28;20325;-88
2022/10/19 07:42:36;;;;;;;22.07;7.80;;;14.30;81.70;;;;;;4930345;28;20524;-92
2022/10/19 07:45:04;;;;;;;15.33;5.63;;;14.30;82.30;;;;;;4919134;28;20236;-93
2022/10/19 07:47:37;;;;;;;17.57;5.90;;;14.40;81.90;;;;;;4931598;28;20206;-86
2022/10/19 07:50:04;;;;;;;12.33;4.97;;;14.40;82.50;;;;;;4929141;29;20300;-90
2022/10/19 07:52:33;;;;;;;18.77;6.40;;;14.50;81.90;;;;;;4929810;29;20248;-93
2022/10/19 07:55:00;;;;;;;26.43;9.37;;;14.50;82.10;;;;;;4929499;28;20208;-95
2022/10/19 07:57:30;;;;;;;10.93;5.00;;;14.50;81.80;;;;;;4924673;29;20715;-95
2022/10/19 07:59:57;;;;;;;14.07;5.83;;;14.60;82.20;;;;;;4951045;28;20248;-85
2022/10/19 08:02:24;;;;;;;11.83;4.77;;;14.60;82.00;;;;;;4943159;28;20238;-93
2022/10/19 08:04:55;;;;;;;13.87;5.07;;;14.70;82.10;;;;;;4928049;28;20236;-90
2022/10/19 08:07:22;;;;;;;22.00;7.57;;;14.70;82.10;;;;;;4945363;28;20203;-91
2022/10/19 08:09:49;;;;;;;18.03;5.43;;;14.70;81.90;;;;;;4945439;29;20213;-92
2022/10/19 08:12:17;;;;;;;21.10;6.77;;;14.80;81.80;;;;;;4936079;28;20211;-88
2022/10/19 08:14:44;;;;;;;17.33;6.60;;;14.80;82.00;;;;;;4921093;28;20546;-89
2022/10/19 08:17:15;;;;;;;25.93;8.50;;;14.90;81.70;;;;;;4943822;29;20214;-92
2022/10/19 08:19:43;;;;;;;10.60;5.50;;;14.90;81.60;;;;;;4948316;28;20200;-89
2022/10/19 08:22:17;;;;;;;15.20;5.30;;;15.00;81.70;;;;;;4937132;28;20200;-91
2022/10/19 08:24:46;;;;;;;9.53;4.97;;;15.00;81.80;;;;;;4923080;28;20300;-92
2022/10/19 08:27:14;;;;;;;21.57;8.03;;;15.10;82.20;;;;;;4927218;28;20292;-86
2022/10/19 08:29:41;;;;;;;15.63;6.73;;;15.10;81.40;;;;;;4933227;28;20210;-90
2022/10/19 08:32:09;;;;;;;17.50;5.80;;;15.10;81.20;;;;;;4921662;29;20284;-89
2022/10/19 08:35:04;;;;;;;18.17;5.90;;;15.20;81.20;;;;;;4933649;28;20219;-93
2022/10/19 08:37:34;;;;;;;18.53;7.23;;;15.30;81.80;;;;;;4941006;28;20268;-91
2022/10/19 08:40:01;;;;;;;17.93;6.47;;;15.30;81.40;;;;;;4934849;28;20260;-92
2022/10/19 08:42:36;;;;;;;20.60;6.80;;;15.40;81.10;;;;;;4932536;28;20240;-94
2022/10/19 08:45:35;;;;;;;16.00;6.43;;;15.40;81.70;;;;;;4936455;29;20231;-92
2022/10/19 08:48:25;;;;;;;18.80;6.23;;;15.50;82.00;;;;;;4936860;28;20841;-92
2022/10/19 08:50:59;;;;;;;9.77;4.93;;;15.60;82.00;;;;;;4935406;28;20307;-93
2022/10/19 08:53:37;;;;;;;13.00;5.93;;;15.80;81.70;;;;;;4943729;28;20230;-95
2022/10/19 08:56:31;;;;;;;12.40;5.50;;;15.90;81.60;;;;;;4942106;28;20209;-94
2022/10/19 08:59:18;;;;;;;10.17;5.17;;;16.10;81.60;;;;;;4933482;28;20225;-91
2022/10/19 09:02:08;;;;;;;12.20;5.47;;;16.20;80.90;;;;;;4930361;29;20777;-95
2022/10/19 09:04:42;;;;;;;20.23;6.67;;;16.40;80.70;;;;;;4926437;29;20225;-94
2022/10/19 09:07:44;;;;;;;15.13;5.73;;;16.60;79.80;;;;;;4939394;28;20222;-96
2022/10/19 09:10:26;;;;;;;12.77;5.67;;;16.80;79.20;;;;;;4936290;29;20207;-87
2022/10/19 09:13:01;;;;;;;15.70;6.50;;;17.00;78.70;;;;;;4933091;28;20316;-86
2022/10/19 09:15:34;;;;;;;12.17;5.27;;;17.20;77.60;;;;;;4926750;29;20220;-88
2022/10/19 09:18:02;;;;;;;18.10;6.40;;;17.30;77.20;;;;;;4931039;28;20291;-90
2022/10/19 09:20:34;;;;;;;17.70;6.90;;;17.50;76.60;;;;;;4930278;28;20206;-87
2022/10/19 09:23:18;;;;;;;21.00;6.20;;;17.60;75.80;;;;;;4932968;29;20674;-87
2022/10/19 09:25:49;;;;;;;18.70;6.87;;;17.70;75.50;;;;;;4930793;29;20237;-88
2022/10/19 09:28:34;;;;;;;12.60;5.77;;;17.80;75.20;;;;;;4936227;28;20369;-88
2022/10/19 09:31:01;;;;;;;17.03;6.37;;;18.00;74.00;;;;;;4934723;28;20196;-88
2022/10/19 09:33:32;;;;;;;14.10;6.03;;;18.10;75.60;;;;;;4946854;28;20230;-87
2022/10/19 09:36:02;;;;;;;14.47;5.80;;;18.20;74.30;;;;;;4928189;28;20218;-91
2022/10/19 09:38:30;;;;;;;18.17;7.80;;;18.40;73.70;;;;;;4931215;28;20298;-88
2022/10/19 09:41:07;;;;;;;16.23;5.93;;;18.50;73.60;;;;;;4918218;28;20232;-87
2022/10/19 09:43:35;;;;;;;14.07;5.23;;;18.60;73.20;;;;;;4930998;28;20287;-90
2022/10/19 09:46:09;;;;;;;13.07;5.67;;;18.80;73.20;;;;;;4931472;28;20774;-90
2022/10/19 09:48:41;;;;;;;15.40;5.97;;;18.90;72.50;;;;;;4934219;29;20298;-92
2022/10/19 09:51:13;;;;;;;13.13;5.33;;;19.00;72.20;;;;;;4934730;28;20255;-91
2022/10/19 09:53:44;;;;;;;15.97;6.47;;;19.20;72.00;;;;;;4930620;28;21001;-87
2022/10/19 09:56:18;;;;;;;13.97;5.80;;;19.30;71.50;;;;;;4931180;28;20672;-86
2022/10/19 09:58:48;;;;;;;12.80;6.37;;;19.50;71.00;;;;;;4933565;29;20234;-91
2022/10/19 10:01:32;;;;;;;16.47;6.13;;;19.60;71.20;;;;;;4919043;28;20200;-88
2022/10/19 10:04:06;;;;;;;19.27;6.87;;;19.80;70.10;;;;;;4934221;28;20247;-89
2022/10/19 10:06:35;;;;;;;18.30;6.03;;;19.90;69.90;;;;;;4932099;28;20208;-88
2022/10/19 10:09:02;;;;;;;13.30;5.87;;;20.10;70.60;;;;;;4934131;28;20208;-87
2022/10/19 10:11:44;;;;;;;14.63;6.47;;;20.10;69.90;;;;;;4929697;28;20255;-88
2022/10/19 10:14:19;;;;;;;15.53;5.47;;;20.30;69.10;;;;;;4930193;28;20214;-88
2022/10/19 10:16:47;;;;;;;18.37;7.50;;;20.40;68.40;;;;;;4928202;28;20209;-89
2022/10/19 10:19:17;;;;;;;11.00;5.10;;;20.50;68.80;;;;;;4930749;28;20215;-89
2022/10/19 10:21:49;;;;;;;19.17;7.40;;;20.70;68.80;;;;;;4934187;28;20237;-87
2022/10/19 10:24:19;;;;;;;12.37;5.90;;;20.80;68.00;;;;;;4943435;28;20568;-87
2022/10/19 10:26:50;;;;;;;12.40;5.43;;;20.90;67.70;;;;;;4943893;28;20240;-89
2022/10/19 10:29:19;;;;;;;19.83;7.80;;;21.00;67.40;;;;;;4932912;28;20213;-87
2022/10/19 10:31:51;;;;;;;13.50;6.37;;;21.10;66.90;;;;;;4930366;28;20675;-89
2022/10/19 10:34:34;;;;;;;9.20;5.00;;;21.20;66.30;;;;;;4930033;28;20299;-87
2022/10/19 10:37:02;;;;;;;13.73;6.27;;;21.20;65.90;;;;;;4941930;28;20786;-89
2022/10/19 10:39:32;;;;;;;15.47;6.03;;;21.30;66.10;;;;;;4929724;28;20267;-88
2022/10/19 10:42:08;;;;;;;17.80;7.37;;;21.30;65.80;;;;;;4928500;29;20875;-87
2022/10/19 10:44:38;;;;;;;13.10;6.23;;;21.40;65.00;;;;;;4928698;28;20602;-88
2022/10/19 10:47:12;;;;;;;12.53;5.43;;;21.40;65.60;;;;;;4929157;28;20215;-87
2022/10/19 10:49:52;;;;;;;15.93;7.17;;;21.40;65.30;;;;;;4928149;28;20671;-88
2022/10/19 10:52:22;;;;;;;15.83;6.33;;;21.50;64.80;;;;;;4926968;28;20602;-88
2022/10/19 10:55:01;;;;;;;14.63;6.43;;;21.50;64.50;;;;;;4927514;28;20950;-87
2022/10/19 10:57:48;;;;;;;11.47;5.23;;;21.50;63.70;;;;;;4928391;28;20840;-88
2022/10/19 11:00:17;;;;;;;15.77;6.20;;;21.60;63.40;;;;;;4929604;28;20634;-90
2022/10/19 11:02:53;;;;;;;21.57;7.60;;;21.60;65.10;;;;;;4929089;29;20253;-89
2022/10/19 11:05:25;;;;;;;16.10;6.13;;;21.60;65.50;;;;;;4930229;28;20232;-88
2022/10/19 11:07:55;;;;;;;12.60;5.33;;;21.70;65.50;;;;;;4929873;28;20212;-88
2022/10/19 11:10:28;;;;;;;20.27;7.47;;;21.80;65.00;;;;;;4928965;28;20219;-89
2022/10/19 11:13:06;;;;;;;12.97;5.53;;;21.80;64.60;;;;;;4929899;28;20204;-87
2022/10/19 11:15:39;;;;;;;19.33;7.07;;;21.90;64.20;;;;;;4927606;28;20270;-88
2022/10/19 11:18:16;;;;;;;18.83;7.50;;;22.00;64.40;;;;;;4926294;29;20243;-89
2022/10/19 11:20:53;;;;;;;12.50;5.40;;;22.10;63.60;;;;;;4949316;28;20208;-91
2022/10/19 11:23:30;;;;;;;9.23;3.90;;;22.20;64.30;;;;;;4916091;28;20293;-89
2022/10/19 11:26:10;;;;;;;12.13;5.53;;;22.30;64.20;;;;;;4914292;29;20308;-89
2022/10/19 11:28:54;;;;;;;11.10;4.67;;;22.50;63.80;;;;;;4913803;28;20674;-89
2022/10/19 11:31:28;;;;;;;8.73;4.50;;;22.60;63.60;;;;;;4924529;28;20200;-88
2022/10/19 11:34:04;;;;;;;14.33;5.33;;;22.80;64.10;;;;;;4930395;28;20219;-88
2022/10/19 11:36:46;;;;;;;11.83;5.40;;;23.00;63.20;;;;;;4911178;28;20299;-88
2022/10/19 11:39:29;;;;;;;13.77;5.03;;;23.10;62.00;;;;;;4924118;28;20231;-89
2022/10/19 11:42:05;;;;;;;14.00;5.87;;;23.30;61.80;;;;;;4928799;29;20240;-89
2022/10/19 11:44:46;;;;;;;14.77;6.73;;;23.40;62.00;;;;;;4912065;28;20243;-90
2022/10/19 11:47:41;;;;;;;10.90;5.50;;;23.60;61.90;;;;;;4929744;28;20211;-92
2022/10/19 11:50:23;;;;;;;9.93;5.07;;;23.70;61.20;;;;;;4928430;28;20212;-90
2022/10/19 11:53:02;;;;;;;13.50;5.73;;;23.80;61.50;;;;;;4927203;29;20255;-94
2022/10/19 11:55:40;;;;;;;12.20;5.77;;;24.00;61.30;;;;;;4921265;28;20568;-89
2022/10/19 11:58:25;;;;;;;11.03;5.73;;;24.20;60.70;;;;;;4928862;28;20191;-88
2022/10/19 12:01:01;;;;;;;14.37;7.20;;;24.30;60.10;;;;;;4925269;29;20638;-89
2022/10/19 12:03:47;;;;;;;14.17;6.27;;;24.40;60.80;;;;;;4932970;29;20951;-89
2022/10/19 12:06:21;;;;;;;12.43;6.17;;;24.50;59.80;;;;;;4931122;29;20294;-89
2022/10/19 12:09:12;;;;;;;13.73;6.90;;;24.60;59.90;;;;;;4930527;29;20291;-89
2022/10/19 12:11:49;;;;;;;15.43;6.13;;;24.70;59.00;;;;;;4928470;29;20239;-88
2022/10/19 12:14:20;;;;;;;12.47;6.57;;;24.80;59.40;;;;;;4932814;29;20247;-88
2022/10/19 12:16:53;;;;;;;11.77;5.90;;;25.00;59.00;;;;;;4946868;28;20220;-88
2022/10/19 12:19:24;;;;;;;11.43;5.80;;;25.00;58.60;;;;;;4933398;28;20669;-87
2022/10/19 12:21:53;;;;;;;10.57;5.37;;;25.10;58.90;;;;;;4927556;28;20762;-88
2022/10/19 12:24:23;;;;;;;14.13;6.63;;;25.20;59.20;;;;;;4931307;28;20250;-91
2022/10/19 12:26:51;;;;;;;14.73;6.17;;;25.30;58.70;;;;;;4931647;28;20244;-89
2022/10/19 12:29:23;;;;;;;14.43;6.77;;;25.40;58.60;;;;;;4930741;28;20292;-91
2022/10/19 12:31:53;;;;;;;14.90;6.40;;;25.40;57.90;;;;;;4933135;28;20293;-91
2022/10/19 12:34:36;;;;;;;17.50;6.83;;;25.50;58.20;;;;;;4930149;28;20212;-89
2022/10/19 12:37:10;;;;;;;17.03;6.67;;;25.50;56.60;;;;;;4927068;28;20212;-88
2022/10/19 12:39:49;;;;;;;10.53;6.23;;;25.60;57.10;;;;;;4930651;28;20242;-88
2022/10/19 12:42:29;;;;;;;12.17;6.03;;;25.60;56.80;;;;;;4929803;28;20211;-88
2022/10/19 12:45:25;;;;;;;12.70;6.17;;;25.60;56.40;;;;;;4930089;29;20224;-90
2022/10/19 12:48:23;;;;;;;11.93;6.10;;;25.70;56.50;;;;;;4928286;28;20236;-88
2022/10/19 12:51:10;;;;;;;15.33;7.00;;;25.80;56.20;;;;;;4937768;28;20218;-88
2022/10/19 12:53:46;;;;;;;16.13;7.33;;;25.80;56.50;;;;;;4929438;29;20211;-90
2022/10/19 12:56:19;;;;;;;18.80;7.03;;;25.90;57.10;;;;;;4934368;28;20226;-89
2022/10/19 12:59:02;;;;;;;15.97;6.60;;;26.00;56.60;;;;;;4934367;29;20262;-89
2022/10/19 13:01:43;;;;;;;16.60;8.33;;;26.10;56.60;;;;;;4933737;28;20204;-87
2022/10/19 13:04:14;;;;;;;12.93;6.80;;;26.10;55.80;;;;;;4940555;28;20196;-88